Terminal Aerodrome Forecast
Issued by NWS

Home | Current Version | Previous Version | Graphics & Text | Print | Product List | Glossary On
Versions: 1 2 3 4 5 6 7 8 9 10 11 12 13 14 15 16 17 18 19 20 21 22
000
FTUS43 KMPX 241200 CCA
TAFAXN
TAF COR
KAXN 241223Z 2412/2512 33020G29KT 6SM -SHSN OVC012
     FM241600 33022G32KT P6SM OVC015
     FM242300 32014G24KT P6SM FEW015
     FM250400 31010KT P6SM SCT100
     FM251100 26005KT P6SM OVC100=

USA.gov is the U.S. government's official web portal to all federal, state and local government web resources and services.